OAKBOAJL

Guest
Details From OAKB - Kabul Intl
To OAJL - JALALABAD
Flight Number -
Tags decoded
Created
Modified
Stats Distance 64 nm / 119 km
Max Altitude 0 ft / 0 m
Waypoints 2
Social Downloads 0
Likes 0
Share VATSIM

Download

Looking for another format? Having issues loading an existing format? Contact us
Advertisement - Login to hide

Notes

Requested: OAKB OAJL

Route

OAKB OAJL

ID Type Via Altitude Latitude Longitude Leg Dist Tot Dist Heading (true) Name
O OAKB APT - 0 ft / 0 m 34.56587˚ 69.21229˚ - 0 nm - Kabul Intl
O OAJL APT - 0 ft / 0 m 34.39984˚ 70.49863˚ 64 nm 64 nm 99° / 99° JALALABAD

Altitude Profile

Advertisement - Login to hide

OAKB

Details ICAO OAKB (KBL)
Name Kabul Intl
Region Afghanistan
Timezone Asia/Kabul (UTC+4.5)
Stats Elevation 5,877 ft / 1,791 m (AMSL)
Location 34.565875° 69.212289°
Runways 1
Magnetic Variation 3.165° E

METAR

OAKB 181550Z 32004KT 1400 FU NSC 02/M04 Q1030 NOSIG RMK A3044 AMB AMB

Decode

TAF

TAF OAKB 181105Z 1812/1912 VRB02KT 3500 HZ SCT110 BECMG 1812/1814 2000 FU TEMPO 1816/1820 0800 BECMG 1901/11902 6000 NSW BECMG 1904/1905 3000 HZ

Decode

Departure Runways

ID Width Length Bearing (true) Bearing (mag) Surface Threshold Offset Overrun Length
11 164 ft / 50 m 11,483 ft / 3,500 m 107.39° 104.23° Asphalt 0 ft / 0 m 144 ft / 44 m
29 164 ft / 50 m 11,483 ft / 3,500 m 287.41° 284.25° Asphalt 0 ft / 0 m 190 ft / 58 m

OAJL

Details ICAO OAJL (JAA)
Name JALALABAD
Region Afghanistan
Timezone Asia/Kabul (UTC+4.5)
Stats Elevation 1,814 ft / 553 m (AMSL)
Location 34.399840° 70.498625°
Runways 1
Magnetic Variation 3.024° E

METAR

OAJL 181555Z 00000KT 8000 HZ BKN190 11/06 A3033 RMK AO2A SLP273 T01070058

Decode

TAF

TAF OAJL 181600Z 1816/1922 34006KT 8000 HZ SCT180 QNH3023INS BECMG 1818/1819 VRB06KT 9999 NSW SCT180 QNH3021INS TEMPO 1904/1908 5000 HZ BECMG 1908/1909 VRB06KT 8000 HZ SCT150 QNH3023INS BECMG 1915/1916 VRB06KT 3200 HZ FEW120 BKN150 QNH3022INS TX19/1909Z TN11/1823Z

Decode

Destination Runways

ID Width Length Bearing (true) Bearing (mag) Surface Threshold Offset Overrun Length
13 148 ft / 45 m 7,263 ft / 2,214 m 131.57° 128.55° Asphalt 0 ft / 0 m 0 ft / 0 m
31 148 ft / 45 m 7,263 ft / 2,214 m 311.58° 308.56° Asphalt 0 ft / 0 m 0 ft / 0 m

Popular Alternatives